Rome, OR

8:58 AM MDT on September 21, 2014 (GMT -0600)
RAWS GRASSY MOUNTAIN OR US | Change Station
CLOSE
Current Station
Personal Weather Station
Location: Jordan Valley, OR
Elevation: 4560 ft
Nearby Weather Stations

Elev 4560 ft 42.63 °N, 117.40 °W | Updated 34 minutes ago

Partly Cloudy
Partly Cloudy
62 °F
Feels Like 62 °F
N
13
Wind Variable Wind from SE
Gusts 15.0 mph

Today
High -- | Low -- °F
--% Chance of Precip.
Yesterday
High -- | Low -- °F
Precip. -- in
7:36 AM 7:48 PM
Waning Crescent, 6% visible
Pressure 30.00 in
Visibility 7.0 miles
Clouds Scattered Clouds 15000 ft
Dew Point 46 °F
Humidity 55%
Rainfall 0.00 in
Snow Depth 0 in , 0 in , 2 in
UV 0 out of 12
Pollen 5.70 out of 12
Air Quality Not available.
Flu Activity Not available.
METAR KMUO 211358Z 09005KT 7SM HZ SCT150 13/06 A3004 RMK AO2A SLP157 T01260055 $

More Conditions Fewer Conditions

Pressure 30.00 in
Visibility 7.0 miles
Clouds Scattered Clouds 15000 ft
Dew Point 46 °F
Humidity 55%
Rainfall 0.00 in
Snow Depth 0 in , 0 in , 2 in
UV 0 out of 12
Pollen 5.70 out of 12
Air Quality Not available.
Flu Activity Not available.
METAR KMUO 211358Z 09005KT 7SM HZ SCT150 13/06 A3004 RMK AO2A SLP157 T01260055 $

More Conditions Fewer Conditions

10-Day Weather Forecast

Almanac

Astronomy

Sep. 21, 2014 Rise Set
Actual Time 7:36 AM MDT 7:48 PM MDT
Civil Twilight 7:07 AM MDT 8:16 PM MDT
Nautical Twilight 6:34 AM MDT 8:49 PM MDT
Astronomical Twilight 6:00 AM MDT 9:23 PM MDT
Moon 5:11 AM MDT 6:29 PM MDT
Length of Visible Light 13h 08m
Length of Day
12h 12m
Tomorrow will be 2m 52s shorter.
Waning Crescent, 6% of the Moon is Illuminated
Today
Waning Crescent
Sep 24
New
Oct 1
First Quarter
Oct 8
Full
Oct 15
Last Quarter

Today's Extremes

State Highs State Lows

Community

WunderPhotos

Upload Photos

1,755,167 photos uploaded!

Nearby

Snow Depth

Station Depth Elevation
Hogg Pass 0 in 4760 ft
Annie Springs 0 in 6020 ft
Lucky Strike 2 in 5050 ft
Diamond Lake 0 in 5315 ft
Holland Meadows 0 in 4900 ft

Earthquake Activity

City Distance Mag. Time & Date
No recent earthquake activity has been reported nearby.
Minimum magnitude displayed is 2.5.

Coastal Water Temperatures

Place Temperature
No Stations Reporting

Nearby Weather Stations